Centertown, Kentucky
Current Conditions -  °F | °C
As of 6:55 PM on Wednesday 22 Oct 2014 (Local Time) from K2I0 Reporting Station
Clear Clear  
Wind Chill: 56°   Ceiling: Unl
Heat Index: 56°   Visibility: 10mi
Dew Point: 42°   Wind: 5mph
Humidity: 60%   Direction: 20°NNE
Pressure: 30.23"   Gusts: NA
Location:  37.42°N, 87°W
Report Text: K2I0 222355Z AUTO 02004KT 10SM CLR 13/06 A3023 RMK AO2 T01320057 10175 20126
Loading
Personal Weather Stations






























Interactive Weather Map
Tropical Storm Tracking
New forecast layout! Learn more

10-Day Weather Forecast

Advertisements
Track Severe Weather on mobile